N1011S KLUK-KERI
Flight info
| Callsign | N1011S |
|---|---|
| Flight time | 1h 48m |
| Altitude | 7000 |
| Route | BNGLE DJB |
| Aircraft | C82R/L-VGDW/C |
Departure
| Time | 2026-05-05 20:42 |
|---|---|
| Airport | Cincinnati Municipal Airport Lunken Field (KLUK) |
Arrival
| Time | 2026-05-05 22:30 |
|---|---|
| Airport | Erie International Tom Ridge Field (KERI) |
| Time | Latitude | Longitude | Altitude | Speed | Heading |
|---|---|---|---|---|---|
| 2026-05-05 20:19 | 39.09351 | -84.42335 | 492 ft | 0 kts | 244° |
| 2026-05-05 20:28 | 39.09356 | -84.42334 | 489 ft | 4 kts | 70° |
| 2026-05-05 20:28 | 39.09378 | -84.42284 | 489 ft | 8 kts | 40° |
| 2026-05-05 20:28 | 39.09415 | -84.42240 | 490 ft | 7 kts | 60° |
| 2026-05-05 20:29 | 39.09436 | -84.42191 | 487 ft | 5 kts | 39° |
| 2026-05-05 20:29 | 39.09465 | -84.42187 | 490 ft | 3 kts | 347° |
| 2026-05-05 20:29 | 39.09482 | -84.42192 | 490 ft | 3 kts | 347° |
| 2026-05-05 20:29 | 39.09510 | -84.42206 | 491 ft | 5 kts | 328° |
| 2026-05-05 20:30 | 39.09552 | -84.42235 | 487 ft | 9 kts | 332° |
| 2026-05-05 20:30 | 39.09623 | -84.42283 | 490 ft | 14 kts | 336° |
| 2026-05-05 20:30 | 39.09725 | -84.42341 | 487 ft | 17 kts | 336° |
| 2026-05-05 20:30 | 39.09831 | -84.42409 | 487 ft | 18 kts | 329° |
| 2026-05-05 20:31 | 39.09932 | -84.42455 | 488 ft | 14 kts | 326° |
| 2026-05-05 20:31 | 39.10013 | -84.42528 | 486 ft | 14 kts | 331° |
| 2026-05-05 20:31 | 39.10107 | -84.42590 | 483 ft | 16 kts | 335° |
| 2026-05-05 20:31 | 39.10206 | -84.42650 | 478 ft | 15 kts | 333° |
| 2026-05-05 20:32 | 39.10296 | -84.42699 | 480 ft | 13 kts | 336° |
| 2026-05-05 20:32 | 39.10370 | -84.42746 | 486 ft | 11 kts | 351° |
| 2026-05-05 20:32 | 39.10411 | -84.42694 | 485 ft | 8 kts | 71° |
| 2026-05-05 20:32 | 39.10434 | -84.42630 | 484 ft | 8 kts | 62° |
| 2026-05-05 20:33 | 39.10464 | -84.42551 | 479 ft | 12 kts | 64° |
| 2026-05-05 20:33 | 39.10509 | -84.42447 | 478 ft | 14 kts | 58° |
| 2026-05-05 20:33 | 39.10554 | -84.42335 | 481 ft | 15 kts | 60° |
| 2026-05-05 20:33 | 39.10608 | -84.42217 | 475 ft | 16 kts | 64° |
| 2026-05-05 20:34 | 39.10656 | -84.42094 | 481 ft | 15 kts | 63° |
| 2026-05-05 20:34 | 39.10703 | -84.41973 | 483 ft | 16 kts | 65° |
| 2026-05-05 20:34 | 39.10760 | -84.41838 | 479 ft | 18 kts | 59° |
| 2026-05-05 20:34 | 39.10818 | -84.41695 | 480 ft | 19 kts | 60° |
| 2026-05-05 20:35 | 39.10885 | -84.41539 | 476 ft | 20 kts | 60° |
| 2026-05-05 20:35 | 39.10963 | -84.41423 | 477 ft | 14 kts | 37° |
| 2026-05-05 20:35 | 39.10979 | -84.41380 | 473 ft | 7 kts | 157° |
| 2026-05-05 20:35 | 39.10972 | -84.41380 | 476 ft | 0 kts | 199° |
| 2026-05-05 20:39 | 39.10970 | -84.41379 | 477 ft | 2 kts | 135° |
| 2026-05-05 20:39 | 39.10965 | -84.41350 | 475 ft | 4 kts | 101° |
| 2026-05-05 20:39 | 39.10948 | -84.41307 | 473 ft | 8 kts | 138° |
| 2026-05-05 20:40 | 39.10897 | -84.41266 | 476 ft | 9 kts | 150° |
| 2026-05-05 20:40 | 39.10845 | -84.41226 | 475 ft | 8 kts | 148° |
| 2026-05-05 20:40 | 39.10812 | -84.41201 | 477 ft | 2 kts | 159° |
| 2026-05-05 20:40 | 39.10809 | -84.41200 | 475 ft | 1 kts | 168° |
| 2026-05-05 20:41 | 39.10794 | -84.41203 | 476 ft | 1 kts | 200° |
| 2026-05-05 20:41 | 39.10680 | -84.41266 | 479 ft | 41 kts | 201° |
| 2026-05-05 20:42 | 39.10304 | -84.41403 | 597 ft | 63 kts | 189° |
| 2026-05-05 20:42 | 39.09838 | -84.41448 | 842 ft | 71 kts | 180° |
| 2026-05-05 20:42 | 39.09337 | -84.41326 | 1122 ft | 76 kts | 169° |
| 2026-05-05 20:42 | 39.08847 | -84.41009 | 1350 ft | 84 kts | 152° |
| 2026-05-05 20:43 | 39.08647 | -84.40288 | 1566 ft | 97 kts | 82° |
| 2026-05-05 20:43 | 39.09124 | -84.39644 | 1777 ft | 99 kts | 15° |
| 2026-05-05 20:43 | 39.09792 | -84.39586 | 1978 ft | 101 kts | 342° |
| 2026-05-05 20:43 | 39.10553 | -84.39765 | 2082 ft | 120 kts | 337° |
| 2026-05-05 20:44 | 39.11402 | -84.39979 | 2242 ft | 126 kts | 340° |
| 2026-05-05 20:44 | 39.12266 | -84.40194 | 2420 ft | 128 kts | 340° |
| 2026-05-05 20:44 | 39.13151 | -84.40419 | 2593 ft | 130 kts | 339° |
| 2026-05-05 20:44 | 39.14010 | -84.40712 | 2760 ft | 125 kts | 324° |
| 2026-05-05 20:45 | 39.15530 | -84.41715 | 3078 ft | 135 kts | 347° |
| 2026-05-05 20:45 | 39.16477 | -84.41720 | 3249 ft | 135 kts | 351° |
| 2026-05-05 20:45 | 39.17427 | -84.41708 | 3427 ft | 137 kts | 350° |
| 2026-05-05 20:46 | 39.18380 | -84.41690 | 3595 ft | 138 kts | 351° |
| 2026-05-05 20:46 | 39.19352 | -84.41670 | 3769 ft | 139 kts | 351° |
| 2026-05-05 20:46 | 39.20315 | -84.41648 | 3951 ft | 137 kts | 352° |
| 2026-05-05 20:46 | 39.21272 | -84.41628 | 4124 ft | 138 kts | 352° |
| 2026-05-05 20:47 | 39.22225 | -84.41607 | 4292 ft | 137 kts | 352° |
| 2026-05-05 20:47 | 39.23182 | -84.41587 | 4474 ft | 137 kts | 352° |
| 2026-05-05 20:47 | 39.24154 | -84.41568 | 4654 ft | 142 kts | 353° |
| 2026-05-05 20:47 | 39.25132 | -84.41545 | 4827 ft | 142 kts | 352° |
| 2026-05-05 20:48 | 39.26125 | -84.41523 | 5001 ft | 142 kts | 352° |
| 2026-05-05 20:48 | 39.27119 | -84.41501 | 5174 ft | 142 kts | 352° |
| 2026-05-05 20:48 | 39.28095 | -84.41480 | 5349 ft | 141 kts | 352° |
| 2026-05-05 20:48 | 39.29091 | -84.41460 | 5525 ft | 144 kts | 351° |
| 2026-05-05 20:49 | 39.30100 | -84.41438 | 5706 ft | 145 kts | 351° |
| 2026-05-05 20:49 | 39.31099 | -84.41416 | 5882 ft | 146 kts | 351° |
| 2026-05-05 20:49 | 39.32119 | -84.41394 | 6050 ft | 147 kts | 352° |
| 2026-05-05 20:49 | 39.33152 | -84.41372 | 6208 ft | 150 kts | 351° |
| 2026-05-05 20:50 | 39.34205 | -84.41349 | 6357 ft | 152 kts | 351° |
| 2026-05-05 20:50 | 39.35256 | -84.41326 | 6500 ft | 153 kts | 351° |
| 2026-05-05 20:50 | 39.36322 | -84.41302 | 6647 ft | 152 kts | 351° |
| 2026-05-05 20:50 | 39.37372 | -84.41279 | 6794 ft | 152 kts | 351° |
| 2026-05-05 20:51 | 39.38438 | -84.41256 | 6940 ft | 152 kts | 351° |
| 2026-05-05 20:51 | 39.39501 | -84.41236 | 6998 ft | 159 kts | 351° |
| 2026-05-05 20:51 | 39.40640 | -84.41215 | 7004 ft | 167 kts | 352° |
| 2026-05-05 20:51 | 39.41820 | -84.41186 | 7010 ft | 171 kts | 352° |
| 2026-05-05 20:52 | 39.43024 | -84.41158 | 7008 ft | 173 kts | 352° |
| 2026-05-05 20:52 | 39.44225 | -84.41130 | 7012 ft | 174 kts | 352° |
| 2026-05-05 20:52 | 39.45446 | -84.41103 | 7011 ft | 175 kts | 352° |
| 2026-05-05 20:52 | 39.46657 | -84.41076 | 7008 ft | 175 kts | 351° |
| 2026-05-05 20:53 | 39.47880 | -84.41050 | 7007 ft | 175 kts | 351° |
| 2026-05-05 20:53 | 39.49085 | -84.41024 | 7006 ft | 175 kts | 352° |
| 2026-05-05 20:53 | 39.50311 | -84.40998 | 7009 ft | 176 kts | 352° |
| 2026-05-05 20:53 | 39.51539 | -84.40971 | 7007 ft | 176 kts | 352° |
| 2026-05-05 20:54 | 39.52754 | -84.40943 | 7006 ft | 176 kts | 351° |
| 2026-05-05 20:54 | 39.53979 | -84.40917 | 7008 ft | 175 kts | 351° |
| 2026-05-05 20:54 | 39.55181 | -84.40662 | 6983 ft | 184 kts | 17° |
| 2026-05-05 20:54 | 39.56211 | -84.39660 | 6993 ft | 187 kts | 45° |
| 2026-05-05 20:55 | 39.57116 | -84.38438 | 6993 ft | 187 kts | 45° |
| 2026-05-05 20:55 | 39.58048 | -84.37275 | 6991 ft | 187 kts | 43° |
| 2026-05-05 20:55 | 39.58990 | -84.36151 | 6992 ft | 184 kts | 41° |
| 2026-05-05 20:55 | 39.59927 | -84.35035 | 6992 ft | 181 kts | 41° |
| 2026-05-05 20:56 | 39.60855 | -84.33925 | 6989 ft | 180 kts | 42° |
| 2026-05-05 20:56 | 39.61777 | -84.32819 | 6970 ft | 180 kts | 42° |
| 2026-05-05 20:56 | 39.62690 | -84.31723 | 6975 ft | 181 kts | 42° |
| 2026-05-05 20:56 | 39.63620 | -84.30607 | 6976 ft | 180 kts | 42° |
| 2026-05-05 20:57 | 39.64530 | -84.29515 | 6972 ft | 178 kts | 41° |
| 2026-05-05 20:57 | 39.65442 | -84.28421 | 6975 ft | 177 kts | 42° |
| 2026-05-05 20:57 | 39.66337 | -84.27347 | 6972 ft | 176 kts | 42° |
| 2026-05-05 20:57 | 39.67238 | -84.26264 | 6974 ft | 176 kts | 42° |
| 2026-05-05 20:58 | 39.68130 | -84.25191 | 6971 ft | 176 kts | 42° |
| 2026-05-05 20:58 | 39.69030 | -84.24109 | 6971 ft | 176 kts | 42° |
| 2026-05-05 20:58 | 39.69930 | -84.23026 | 6972 ft | 175 kts | 42° |
| 2026-05-05 20:58 | 39.70826 | -84.21948 | 6971 ft | 175 kts | 42° |
| 2026-05-05 20:59 | 39.71719 | -84.20873 | 6973 ft | 176 kts | 42° |
| 2026-05-05 20:59 | 39.72621 | -84.19786 | 6964 ft | 176 kts | 41° |
| 2026-05-05 20:59 | 39.73511 | -84.18714 | 6966 ft | 176 kts | 41° |
| 2026-05-05 20:59 | 39.74413 | -84.17627 | 6966 ft | 176 kts | 42° |
| 2026-05-05 21:00 | 39.75306 | -84.16550 | 6963 ft | 176 kts | 41° |
| 2026-05-05 21:00 | 39.76206 | -84.15464 | 6967 ft | 177 kts | 41° |
| 2026-05-05 21:00 | 39.77107 | -84.14378 | 6969 ft | 178 kts | 42° |
| 2026-05-05 21:00 | 39.78019 | -84.13276 | 6966 ft | 178 kts | 42° |
| 2026-05-05 21:01 | 39.78931 | -84.12175 | 6968 ft | 179 kts | 41° |
| 2026-05-05 21:01 | 39.79833 | -84.11086 | 6969 ft | 178 kts | 42° |
| 2026-05-05 21:01 | 39.80749 | -84.09978 | 6971 ft | 179 kts | 42° |
| 2026-05-05 21:01 | 39.81666 | -84.08870 | 6968 ft | 179 kts | 42° |
| 2026-05-05 21:02 | 39.82569 | -84.07777 | 6967 ft | 178 kts | 42° |
| 2026-05-05 21:02 | 39.83470 | -84.06687 | 6969 ft | 177 kts | 42° |
| 2026-05-05 21:02 | 39.84378 | -84.05588 | 6968 ft | 177 kts | 42° |
| 2026-05-05 21:02 | 39.85282 | -84.04494 | 6972 ft | 177 kts | 42° |
| 2026-05-05 21:03 | 39.86176 | -84.03411 | 6967 ft | 177 kts | 42° |
| 2026-05-05 21:03 | 39.87082 | -84.02314 | 6966 ft | 177 kts | 42° |
| 2026-05-05 21:03 | 39.87975 | -84.01231 | 6965 ft | 177 kts | 42° |
| 2026-05-05 21:03 | 39.88876 | -84.00139 | 6966 ft | 178 kts | 42° |
| 2026-05-05 21:04 | 39.89790 | -83.99029 | 6968 ft | 179 kts | 42° |
| 2026-05-05 21:04 | 39.90697 | -83.97929 | 6967 ft | 179 kts | 43° |
| 2026-05-05 21:04 | 39.91615 | -83.96814 | 6979 ft | 180 kts | 42° |
| 2026-05-05 21:04 | 39.92535 | -83.95697 | 6981 ft | 181 kts | 42° |
| 2026-05-05 21:05 | 39.93450 | -83.94584 | 6979 ft | 181 kts | 43° |
| 2026-05-05 21:05 | 39.94376 | -83.93460 | 6977 ft | 180 kts | 43° |
| 2026-05-05 21:05 | 39.95284 | -83.92355 | 6979 ft | 179 kts | 43° |
| 2026-05-05 21:05 | 39.96197 | -83.91246 | 6978 ft | 178 kts | 42° |
| 2026-05-05 21:06 | 39.97095 | -83.90153 | 6975 ft | 179 kts | 43° |
| 2026-05-05 21:06 | 39.98016 | -83.89031 | 6976 ft | 179 kts | 43° |
| 2026-05-05 21:06 | 39.98918 | -83.87933 | 6976 ft | 179 kts | 42° |
| 2026-05-05 21:06 | 39.99830 | -83.86822 | 6980 ft | 178 kts | 42° |
| 2026-05-05 21:07 | 40.00726 | -83.85731 | 6981 ft | 178 kts | 42° |
| 2026-05-05 21:07 | 40.01641 | -83.84615 | 6976 ft | 179 kts | 43° |
| 2026-05-05 21:07 | 40.02544 | -83.83513 | 6979 ft | 178 kts | 43° |
| 2026-05-05 21:07 | 40.03453 | -83.82405 | 6978 ft | 177 kts | 42° |
| 2026-05-05 21:08 | 40.04347 | -83.81313 | 6980 ft | 178 kts | 43° |
| 2026-05-05 21:08 | 40.05258 | -83.80201 | 6983 ft | 178 kts | 43° |
| 2026-05-05 21:08 | 40.06159 | -83.79101 | 6984 ft | 178 kts | 42° |
| 2026-05-05 21:08 | 40.07065 | -83.77994 | 6985 ft | 177 kts | 42° |
| 2026-05-05 21:09 | 40.07958 | -83.76901 | 6987 ft | 178 kts | 43° |
| 2026-05-05 21:09 | 40.08865 | -83.75793 | 6986 ft | 178 kts | 42° |
| 2026-05-05 21:09 | 40.09762 | -83.74696 | 6981 ft | 179 kts | 42° |
| 2026-05-05 21:09 | 40.10669 | -83.73586 | 7015 ft | 176 kts | 42° |
| 2026-05-05 21:10 | 40.11569 | -83.72484 | 7009 ft | 178 kts | 43° |
| 2026-05-05 21:10 | 40.12466 | -83.71386 | 7008 ft | 177 kts | 42° |
| 2026-05-05 21:10 | 40.13368 | -83.70280 | 7005 ft | 177 kts | 42° |
| 2026-05-05 21:10 | 40.14256 | -83.69192 | 7006 ft | 177 kts | 43° |
| 2026-05-05 21:11 | 40.15157 | -83.68088 | 7009 ft | 177 kts | 42° |
| 2026-05-05 21:11 | 40.16059 | -83.66981 | 7009 ft | 177 kts | 42° |
| 2026-05-05 21:11 | 40.16948 | -83.65890 | 7004 ft | 176 kts | 43° |
| 2026-05-05 21:11 | 40.17842 | -83.64792 | 7008 ft | 174 kts | 42° |
| 2026-05-05 21:12 | 40.18732 | -83.63700 | 7011 ft | 176 kts | 42° |
| 2026-05-05 21:12 | 40.19628 | -83.62600 | 7019 ft | 180 kts | 42° |
| 2026-05-05 21:12 | 40.20543 | -83.61474 | 7023 ft | 183 kts | 43° |
| 2026-05-05 21:12 | 40.21477 | -83.60323 | 7023 ft | 185 kts | 42° |
| 2026-05-05 21:13 | 40.22425 | -83.59159 | 7019 ft | 188 kts | 42° |
| 2026-05-05 21:13 | 40.23370 | -83.57996 | 7024 ft | 188 kts | 43° |
| 2026-05-05 21:13 | 40.24316 | -83.56830 | 7022 ft | 184 kts | 42° |
| 2026-05-05 21:13 | 40.25237 | -83.55696 | 7017 ft | 182 kts | 42° |
| 2026-05-05 21:14 | 40.26160 | -83.54560 | 7013 ft | 182 kts | 42° |
| 2026-05-05 21:14 | 40.27100 | -83.53402 | 7012 ft | 186 kts | 43° |
| 2026-05-05 21:14 | 40.28037 | -83.52249 | 7013 ft | 186 kts | 42° |
| 2026-05-05 21:14 | 40.28978 | -83.51086 | 7013 ft | 184 kts | 42° |
| 2026-05-05 21:15 | 40.29905 | -83.49942 | 7009 ft | 184 kts | 42° |
| 2026-05-05 21:15 | 40.30847 | -83.48780 | 7007 ft | 185 kts | 42° |
| 2026-05-05 21:15 | 40.31771 | -83.47640 | 7007 ft | 182 kts | 43° |
| 2026-05-05 21:15 | 40.32693 | -83.46499 | 7007 ft | 179 kts | 42° |
| 2026-05-05 21:16 | 40.33594 | -83.45388 | 7010 ft | 181 kts | 42° |
| 2026-05-05 21:16 | 40.34518 | -83.44246 | 7008 ft | 181 kts | 42° |
| 2026-05-05 21:16 | 40.35423 | -83.43126 | 7005 ft | 180 kts | 42° |
| 2026-05-05 21:16 | 40.36337 | -83.41995 | 7011 ft | 180 kts | 42° |
| 2026-05-05 21:17 | 40.37248 | -83.40867 | 7012 ft | 183 kts | 42° |
| 2026-05-05 21:17 | 40.38182 | -83.39710 | 7012 ft | 184 kts | 42° |
| 2026-05-05 21:17 | 40.39102 | -83.38571 | 7013 ft | 182 kts | 42° |
| 2026-05-05 21:17 | 40.40028 | -83.37425 | 7012 ft | 182 kts | 42° |
| 2026-05-05 21:18 | 40.40943 | -83.36290 | 7012 ft | 183 kts | 42° |
| 2026-05-05 21:18 | 40.41881 | -83.35126 | 7012 ft | 185 kts | 42° |
| 2026-05-05 21:18 | 40.42822 | -83.33958 | 7011 ft | 186 kts | 43° |
| 2026-05-05 21:18 | 40.43755 | -83.32800 | 7015 ft | 186 kts | 43° |
| 2026-05-05 21:19 | 40.44701 | -83.31625 | 7012 ft | 185 kts | 42° |
| 2026-05-05 21:19 | 40.45628 | -83.30473 | 6997 ft | 183 kts | 42° |
| 2026-05-05 21:19 | 40.46542 | -83.29338 | 6994 ft | 180 kts | 42° |
| 2026-05-05 21:19 | 40.47451 | -83.28209 | 7000 ft | 178 kts | 42° |
| 2026-05-05 21:20 | 40.48046 | -83.27470 | 6996 ft | 176 kts | 42° |
| 2026-05-05 21:20 | 40.49228 | -83.26000 | 6991 ft | 175 kts | 42° |
| 2026-05-05 21:20 | 40.49815 | -83.25270 | 6990 ft | 174 kts | 42° |
| 2026-05-05 21:20 | 40.50692 | -83.24178 | 6990 ft | 172 kts | 42° |
| 2026-05-05 21:21 | 40.51549 | -83.23111 | 6993 ft | 171 kts | 42° |
| 2026-05-05 21:21 | 40.52417 | -83.22028 | 6996 ft | 172 kts | 42° |
| 2026-05-05 21:21 | 40.53287 | -83.20944 | 6995 ft | 172 kts | 42° |
| 2026-05-05 21:21 | 40.54150 | -83.19868 | 6994 ft | 172 kts | 42° |
| 2026-05-05 21:22 | 40.55027 | -83.18774 | 6996 ft | 173 kts | 42° |
| 2026-05-05 21:22 | 40.55901 | -83.17685 | 6999 ft | 175 kts | 42° |
| 2026-05-05 21:22 | 40.56790 | -83.16575 | 7001 ft | 176 kts | 42° |
| 2026-05-05 21:22 | 40.57672 | -83.15474 | 7001 ft | 176 kts | 42° |
| 2026-05-05 21:23 | 40.58566 | -83.14358 | 7000 ft | 176 kts | 42° |
| 2026-05-05 21:23 | 40.59448 | -83.13256 | 7003 ft | 176 kts | 42° |
| 2026-05-05 21:23 | 40.60341 | -83.12140 | 7005 ft | 176 kts | 42° |
| 2026-05-05 21:23 | 40.61224 | -83.11035 | 7005 ft | 176 kts | 42° |
| 2026-05-05 21:24 | 40.62119 | -83.09916 | 7006 ft | 176 kts | 42° |
| 2026-05-05 21:24 | 40.63007 | -83.08804 | 7003 ft | 176 kts | 42° |
| 2026-05-05 21:24 | 40.63888 | -83.07700 | 7003 ft | 175 kts | 42° |
| 2026-05-05 21:24 | 40.64772 | -83.06593 | 7005 ft | 174 kts | 42° |
| 2026-05-05 21:25 | 40.65646 | -83.05498 | 7007 ft | 175 kts | 42° |
| 2026-05-05 21:25 | 40.66533 | -83.04387 | 7004 ft | 176 kts | 42° |
| 2026-05-05 21:25 | 40.67418 | -83.03277 | 7004 ft | 177 kts | 42° |
| 2026-05-05 21:25 | 40.68309 | -83.02160 | 7003 ft | 177 kts | 42° |
| 2026-05-05 21:26 | 40.69208 | -83.01031 | 7005 ft | 178 kts | 42° |
| 2026-05-05 21:26 | 40.70101 | -82.99909 | 7008 ft | 179 kts | 42° |
| 2026-05-05 21:26 | 40.71007 | -82.98772 | 7007 ft | 179 kts | 42° |
| 2026-05-05 21:26 | 40.71902 | -82.97647 | 7006 ft | 179 kts | 42° |
| 2026-05-05 21:27 | 40.72808 | -82.96509 | 7008 ft | 179 kts | 42° |
| 2026-05-05 21:27 | 40.73705 | -82.95380 | 7010 ft | 180 kts | 42° |
| 2026-05-05 21:27 | 40.74013 | -82.94993 | 7008 ft | 180 kts | 42° |
| 2026-05-05 21:27 | 40.75523 | -82.93093 | 7011 ft | 181 kts | 41° |
| 2026-05-05 21:28 | 40.76431 | -82.91951 | 7012 ft | 181 kts | 42° |
| 2026-05-05 21:28 | 40.77347 | -82.90795 | 7013 ft | 181 kts | 43° |
| 2026-05-05 21:28 | 40.78267 | -82.89636 | 7010 ft | 182 kts | 42° |
| 2026-05-05 21:28 | 40.79180 | -82.88486 | 7014 ft | 183 kts | 41° |
| 2026-05-05 21:29 | 40.80101 | -82.87325 | 7016 ft | 182 kts | 42° |
| 2026-05-05 21:29 | 40.81013 | -82.86174 | 7015 ft | 183 kts | 43° |
| 2026-05-05 21:29 | 40.81942 | -82.85002 | 7013 ft | 183 kts | 42° |
| 2026-05-05 21:29 | 40.82854 | -82.83851 | 7013 ft | 183 kts | 42° |
| 2026-05-05 21:30 | 40.83765 | -82.82700 | 7011 ft | 181 kts | 41° |
| 2026-05-05 21:30 | 40.84685 | -82.81538 | 7016 ft | 182 kts | 42° |
| 2026-05-05 21:30 | 40.85592 | -82.80392 | 7015 ft | 182 kts | 42° |
| 2026-05-05 21:30 | 40.86512 | -82.79228 | 7011 ft | 182 kts | 43° |
| 2026-05-05 21:31 | 40.87430 | -82.78083 | 7005 ft | 180 kts | 38° |
| 2026-05-05 21:31 | 40.88528 | -82.77466 | 6999 ft | 169 kts | 5° |
| 2026-05-05 21:31 | 40.89678 | -82.77115 | 7004 ft | 170 kts | 4° |
| 2026-05-05 21:31 | 40.90824 | -82.76751 | 7004 ft | 170 kts | 4° |
| 2026-05-05 21:32 | 40.91986 | -82.76393 | 7005 ft | 170 kts | 4° |
| 2026-05-05 21:32 | 40.93125 | -82.76034 | 7006 ft | 170 kts | 4° |
| 2026-05-05 21:32 | 40.94278 | -82.75668 | 7007 ft | 169 kts | 4° |
| 2026-05-05 21:32 | 40.95378 | -82.75106 | 6994 ft | 176 kts | 30° |
| 2026-05-05 21:33 | 40.96125 | -82.73834 | 6994 ft | 175 kts | 72° |
| 2026-05-05 21:33 | 40.96532 | -82.72339 | 6996 ft | 175 kts | 68° |
| 2026-05-05 21:33 | 40.97141 | -82.70923 | 6999 ft | 177 kts | 60° |
| 2026-05-05 21:33 | 40.97786 | -82.69549 | 7003 ft | 178 kts | 60° |
| 2026-05-05 21:34 | 40.98436 | -82.68138 | 6999 ft | 178 kts | 61° |
| 2026-05-05 21:34 | 40.99070 | -82.66748 | 7003 ft | 178 kts | 60° |
| 2026-05-05 21:34 | 40.99714 | -82.65336 | 7001 ft | 178 kts | 60° |
| 2026-05-05 21:34 | 41.00349 | -82.63943 | 7004 ft | 178 kts | 61° |
| 2026-05-05 21:35 | 41.00997 | -82.62521 | 7006 ft | 180 kts | 61° |
| 2026-05-05 21:35 | 41.01637 | -82.61117 | 7008 ft | 179 kts | 61° |
| 2026-05-05 21:35 | 41.02282 | -82.59701 | 7004 ft | 179 kts | 61° |
| 2026-05-05 21:35 | 41.02925 | -82.58291 | 7004 ft | 178 kts | 61° |
| 2026-05-05 21:36 | 41.03559 | -82.56896 | 7009 ft | 178 kts | 61° |
| 2026-05-05 21:36 | 41.04209 | -82.55467 | 7010 ft | 181 kts | 62° |
| 2026-05-05 21:36 | 41.04856 | -82.54042 | 7013 ft | 183 kts | 61° |
| 2026-05-05 21:36 | 41.05512 | -82.52598 | 7013 ft | 184 kts | 60° |
| 2026-05-05 21:37 | 41.06176 | -82.51137 | 7019 ft | 185 kts | 60° |
| 2026-05-05 21:37 | 41.06840 | -82.49673 | 7021 ft | 188 kts | 61° |
| 2026-05-05 21:37 | 41.07527 | -82.48159 | 7016 ft | 191 kts | 61° |
| 2026-05-05 21:37 | 41.08209 | -82.46653 | 7017 ft | 194 kts | 61° |
| 2026-05-05 21:38 | 41.08914 | -82.45097 | 7018 ft | 198 kts | 60° |
| 2026-05-05 21:38 | 41.09620 | -82.43543 | 7019 ft | 198 kts | 63° |
| 2026-05-05 21:38 | 41.10326 | -82.41983 | 7016 ft | 193 kts | 61° |
| 2026-05-05 21:38 | 41.10996 | -82.40503 | 7004 ft | 183 kts | 60° |
| 2026-05-05 21:39 | 41.11638 | -82.39088 | 7005 ft | 175 kts | 62° |
| 2026-05-05 21:39 | 41.12260 | -82.37713 | 7002 ft | 172 kts | 61° |
| 2026-05-05 21:39 | 41.12869 | -82.36366 | 7001 ft | 171 kts | 61° |
| 2026-05-05 21:39 | 41.13473 | -82.35027 | 7003 ft | 170 kts | 61° |
| 2026-05-05 21:40 | 41.14081 | -82.33681 | 6999 ft | 169 kts | 61° |
| 2026-05-05 21:40 | 41.14686 | -82.32341 | 7006 ft | 169 kts | 61° |
| 2026-05-05 21:40 | 41.15289 | -82.31004 | 7006 ft | 170 kts | 61° |
| 2026-05-05 21:40 | 41.15902 | -82.29645 | 7009 ft | 171 kts | 61° |
| 2026-05-05 21:41 | 41.16509 | -82.28297 | 7007 ft | 171 kts | 62° |
| 2026-05-05 21:41 | 41.17123 | -82.26935 | 7009 ft | 172 kts | 61° |
| 2026-05-05 21:41 | 41.17740 | -82.25566 | 7008 ft | 172 kts | 61° |
| 2026-05-05 21:41 | 41.18350 | -82.24210 | 7010 ft | 173 kts | 62° |
| 2026-05-05 21:42 | 41.18972 | -82.22828 | 7011 ft | 174 kts | 61° |
| 2026-05-05 21:42 | 41.19592 | -82.21452 | 7009 ft | 175 kts | 61° |
| 2026-05-05 21:42 | 41.20218 | -82.20059 | 7007 ft | 175 kts | 62° |
| 2026-05-05 21:42 | 41.20841 | -82.18672 | 7008 ft | 174 kts | 62° |
| 2026-05-05 21:43 | 41.21458 | -82.17300 | 7008 ft | 173 kts | 62° |
| 2026-05-05 21:43 | 41.22075 | -82.15924 | 7006 ft | 173 kts | 62° |
| 2026-05-05 21:43 | 41.22685 | -82.14564 | 7006 ft | 173 kts | 62° |
| 2026-05-05 21:43 | 41.23308 | -82.13176 | 7006 ft | 174 kts | 61° |
| 2026-05-05 21:44 | 41.23925 | -82.11799 | 7013 ft | 177 kts | 61° |
| 2026-05-05 21:44 | 41.24569 | -82.10363 | 7016 ft | 183 kts | 61° |
| 2026-05-05 21:44 | 41.25227 | -82.08892 | 7015 ft | 188 kts | 62° |
| 2026-05-05 21:44 | 41.25903 | -82.07379 | 7016 ft | 190 kts | 62° |
| 2026-05-05 21:45 | 41.26578 | -82.05869 | 7017 ft | 192 kts | 61° |
| 2026-05-05 21:45 | 41.27263 | -82.04340 | 7009 ft | 191 kts | 61° |
| 2026-05-05 21:45 | 41.27948 | -82.02808 | 7014 ft | 193 kts | 62° |
| 2026-05-05 21:45 | 41.28628 | -82.01287 | 7014 ft | 193 kts | 62° |
| 2026-05-05 21:46 | 41.29315 | -81.99749 | 7011 ft | 191 kts | 62° |
| 2026-05-05 21:46 | 41.29991 | -81.98234 | 7003 ft | 191 kts | 62° |
| 2026-05-05 21:46 | 41.30670 | -81.96709 | 7003 ft | 191 kts | 61° |
| 2026-05-05 21:46 | 41.31346 | -81.95196 | 7005 ft | 191 kts | 61° |
| 2026-05-05 21:47 | 41.32027 | -81.93670 | 7001 ft | 190 kts | 61° |
| 2026-05-05 21:47 | 41.32694 | -81.92172 | 6996 ft | 189 kts | 62° |
| 2026-05-05 21:47 | 41.33363 | -81.90669 | 6992 ft | 187 kts | 62° |
| 2026-05-05 21:47 | 41.34019 | -81.89196 | 6989 ft | 182 kts | 61° |
| 2026-05-05 21:48 | 41.34653 | -81.87772 | 6985 ft | 179 kts | 61° |
| 2026-05-05 21:48 | 41.35289 | -81.86344 | 6988 ft | 177 kts | 61° |
| 2026-05-05 21:48 | 41.35907 | -81.84953 | 6987 ft | 176 kts | 61° |
| 2026-05-05 21:48 | 41.36529 | -81.83552 | 6989 ft | 175 kts | 62° |
| 2026-05-05 21:49 | 41.37146 | -81.82161 | 6990 ft | 176 kts | 61° |
| 2026-05-05 21:49 | 41.37774 | -81.80748 | 6991 ft | 177 kts | 61° |
| 2026-05-05 21:49 | 41.38404 | -81.79326 | 6988 ft | 179 kts | 61° |
| 2026-05-05 21:49 | 41.39031 | -81.77910 | 6987 ft | 180 kts | 62° |
| 2026-05-05 21:50 | 41.39673 | -81.76462 | 6988 ft | 181 kts | 62° |
| 2026-05-05 21:50 | 41.40313 | -81.75016 | 6985 ft | 179 kts | 61° |
| 2026-05-05 21:50 | 41.40935 | -81.73613 | 6981 ft | 177 kts | 61° |
| 2026-05-05 21:50 | 41.41560 | -81.72203 | 6980 ft | 175 kts | 61° |
| 2026-05-05 21:51 | 41.42181 | -81.70796 | 6999 ft | 175 kts | 61° |
| 2026-05-05 21:51 | 41.42795 | -81.69408 | 6998 ft | 176 kts | 60° |
| 2026-05-05 21:51 | 41.43419 | -81.67996 | 7002 ft | 177 kts | 61° |
| 2026-05-05 21:51 | 41.44049 | -81.66571 | 7006 ft | 177 kts | 61° |
| 2026-05-05 21:52 | 41.45302 | -81.63729 | 7003 ft | 178 kts | 61° |
| 2026-05-05 21:52 | 41.45927 | -81.62314 | 7007 ft | 179 kts | 61° |
| 2026-05-05 21:52 | 41.46564 | -81.60869 | 7005 ft | 180 kts | 61° |
| 2026-05-05 21:53 | 41.47192 | -81.59442 | 7008 ft | 180 kts | 61° |
| 2026-05-05 21:53 | 41.47829 | -81.57996 | 7007 ft | 180 kts | 61° |
| 2026-05-05 21:53 | 41.48465 | -81.56551 | 7008 ft | 180 kts | 61° |
| 2026-05-05 21:53 | 41.49097 | -81.55115 | 7018 ft | 181 kts | 61° |
| 2026-05-05 21:54 | 41.49735 | -81.53663 | 7014 ft | 181 kts | 61° |
| 2026-05-05 21:54 | 41.50373 | -81.52213 | 7017 ft | 180 kts | 61° |
| 2026-05-05 21:54 | 41.51004 | -81.50777 | 7038 ft | 180 kts | 61° |
| 2026-05-05 21:54 | 41.51643 | -81.49321 | 7033 ft | 181 kts | 61° |
| 2026-05-05 21:55 | 41.52273 | -81.47887 | 7034 ft | 181 kts | 61° |
| 2026-05-05 21:55 | 41.52910 | -81.46434 | 7032 ft | 181 kts | 61° |
| 2026-05-05 21:55 | 41.53540 | -81.44997 | 7032 ft | 180 kts | 61° |
| 2026-05-05 21:55 | 41.54175 | -81.43549 | 7031 ft | 179 kts | 61° |
| 2026-05-05 21:56 | 41.54806 | -81.42111 | 7032 ft | 179 kts | 61° |
| 2026-05-05 21:56 | 41.55432 | -81.40682 | 7030 ft | 180 kts | 61° |
| 2026-05-05 21:56 | 41.56064 | -81.39236 | 7029 ft | 180 kts | 61° |
| 2026-05-05 21:56 | 41.56687 | -81.37813 | 7027 ft | 179 kts | 61° |
| 2026-05-05 21:57 | 41.57318 | -81.36371 | 7028 ft | 178 kts | 61° |
| 2026-05-05 21:57 | 41.57945 | -81.34936 | 7027 ft | 179 kts | 61° |
| 2026-05-05 21:57 | 41.58573 | -81.33497 | 7011 ft | 179 kts | 61° |
| 2026-05-05 21:57 | 41.59197 | -81.32068 | 7015 ft | 180 kts | 61° |
| 2026-05-05 21:58 | 41.59823 | -81.30634 | 7010 ft | 179 kts | 61° |
| 2026-05-05 21:58 | 41.60453 | -81.29190 | 7011 ft | 179 kts | 61° |
| 2026-05-05 21:58 | 41.61077 | -81.27759 | 7011 ft | 182 kts | 61° |
| 2026-05-05 21:58 | 41.61722 | -81.26278 | 7010 ft | 185 kts | 61° |
| 2026-05-05 21:59 | 41.62373 | -81.24780 | 7009 ft | 186 kts | 60° |
| 2026-05-05 21:59 | 41.63017 | -81.23301 | 7009 ft | 186 kts | 60° |
| 2026-05-05 21:59 | 41.63673 | -81.21793 | 7013 ft | 186 kts | 60° |
| 2026-05-05 21:59 | 41.64320 | -81.20307 | 7013 ft | 186 kts | 61° |
| 2026-05-05 22:00 | 41.64973 | -81.18805 | 7005 ft | 186 kts | 61° |
| 2026-05-05 22:00 | 41.65623 | -81.17309 | 7000 ft | 185 kts | 61° |
| 2026-05-05 22:00 | 41.66266 | -81.15827 | 7003 ft | 185 kts | 60° |
| 2026-05-05 22:00 | 41.66918 | -81.14326 | 6999 ft | 186 kts | 60° |
| 2026-05-05 22:01 | 41.67564 | -81.12838 | 6999 ft | 187 kts | 60° |
| 2026-05-05 22:01 | 41.68219 | -81.11326 | 6997 ft | 186 kts | 61° |
| 2026-05-05 22:01 | 41.68870 | -81.09825 | 6996 ft | 185 kts | 60° |
| 2026-05-05 22:01 | 41.69507 | -81.08353 | 6998 ft | 185 kts | 60° |
| 2026-05-05 22:02 | 41.70154 | -81.06865 | 7000 ft | 186 kts | 60° |
| 2026-05-05 22:02 | 41.70808 | -81.05350 | 6999 ft | 188 kts | 59° |
| 2026-05-05 22:02 | 41.71463 | -81.03835 | 6995 ft | 188 kts | 60° |
| 2026-05-05 22:02 | 41.71907 | -81.02810 | 6986 ft | 188 kts | 60° |
| 2026-05-05 22:03 | 41.72555 | -81.01308 | 6982 ft | 186 kts | 60° |
| 2026-05-05 22:03 | 41.73199 | -80.99818 | 6981 ft | 182 kts | 60° |
| 2026-05-05 22:03 | 41.73817 | -80.98388 | 6980 ft | 177 kts | 61° |
| 2026-05-05 22:03 | 41.74633 | -80.96502 | 6978 ft | 174 kts | 60° |
| 2026-05-05 22:04 | 41.75039 | -80.95560 | 6988 ft | 172 kts | 60° |
| 2026-05-05 22:04 | 41.75636 | -80.94174 | 6982 ft | 172 kts | 60° |
| 2026-05-05 22:04 | 41.76266 | -80.92796 | 6986 ft | 173 kts | 54° |
| 2026-05-05 22:04 | 41.76969 | -80.91497 | 6997 ft | 174 kts | 53° |
| 2026-05-05 22:05 | 41.77684 | -80.90167 | 6995 ft | 175 kts | 53° |
| 2026-05-05 22:05 | 41.78386 | -80.88861 | 6992 ft | 175 kts | 53° |
| 2026-05-05 22:05 | 41.79100 | -80.87530 | 6993 ft | 175 kts | 53° |
| 2026-05-05 22:05 | 41.79808 | -80.86213 | 6992 ft | 175 kts | 53° |
| 2026-05-05 22:06 | 41.80525 | -80.84880 | 6995 ft | 176 kts | 53° |
| 2026-05-05 22:06 | 41.81246 | -80.83545 | 6992 ft | 176 kts | 53° |
| 2026-05-05 22:06 | 41.81964 | -80.82208 | 6998 ft | 176 kts | 53° |
| 2026-05-05 22:06 | 41.82672 | -80.80881 | 6969 ft | 178 kts | 53° |
| 2026-05-05 22:07 | 41.83417 | -80.79485 | 6824 ft | 187 kts | 53° |
| 2026-05-05 22:07 | 41.84176 | -80.78064 | 6691 ft | 191 kts | 53° |
| 2026-05-05 22:07 | 41.84960 | -80.76600 | 6551 ft | 193 kts | 53° |
| 2026-05-05 22:07 | 41.85740 | -80.75148 | 6409 ft | 194 kts | 53° |
| 2026-05-05 22:08 | 41.86542 | -80.73655 | 6267 ft | 196 kts | 53° |
| 2026-05-05 22:08 | 41.87331 | -80.72185 | 6125 ft | 197 kts | 53° |
| 2026-05-05 22:08 | 41.88142 | -80.70675 | 5979 ft | 199 kts | 53° |
| 2026-05-05 22:08 | 41.88954 | -80.69161 | 5826 ft | 200 kts | 53° |
| 2026-05-05 22:09 | 41.89743 | -80.67677 | 5670 ft | 196 kts | 53° |
| 2026-05-05 22:09 | 41.90534 | -80.66193 | 5516 ft | 193 kts | 52° |
| 2026-05-05 22:09 | 41.91305 | -80.64738 | 5398 ft | 189 kts | 53° |
| 2026-05-05 22:09 | 41.92069 | -80.63319 | 5269 ft | 188 kts | 53° |
| 2026-05-05 22:10 | 41.92845 | -80.61875 | 5142 ft | 191 kts | 53° |
| 2026-05-05 22:10 | 41.93618 | -80.60441 | 5022 ft | 192 kts | 53° |
| 2026-05-05 22:10 | 41.94397 | -80.59001 | 4999 ft | 185 kts | 53° |
| 2026-05-05 22:10 | 41.95138 | -80.57632 | 4994 ft | 181 kts | 53° |
| 2026-05-05 22:11 | 41.95939 | -80.56317 | 4892 ft | 183 kts | 47° |
| 2026-05-05 22:11 | 41.96795 | -80.55000 | 4720 ft | 188 kts | 47° |
| 2026-05-05 22:11 | 41.97656 | -80.53685 | 4546 ft | 189 kts | 47° |
| 2026-05-05 22:11 | 41.98518 | -80.52356 | 4366 ft | 184 kts | 47° |
| 2026-05-05 22:12 | 41.99331 | -80.51091 | 4190 ft | 177 kts | 47° |
| 2026-05-05 22:12 | 42.00131 | -80.49840 | 4002 ft | 174 kts | 47° |
| 2026-05-05 22:12 | 42.00912 | -80.48607 | 3826 ft | 172 kts | 47° |
| 2026-05-05 22:12 | 42.01680 | -80.47407 | 3652 ft | 170 kts | 47° |
| 2026-05-05 22:13 | 42.02449 | -80.46204 | 3482 ft | 170 kts | 46° |
| 2026-05-05 22:13 | 42.03231 | -80.44960 | 3309 ft | 175 kts | 47° |
| 2026-05-05 22:13 | 42.04002 | -80.43717 | 3142 ft | 173 kts | 47° |
| 2026-05-05 22:13 | 42.04766 | -80.42485 | 3002 ft | 168 kts | 47° |
| 2026-05-05 22:14 | 42.05481 | -80.41313 | 2995 ft | 159 kts | 47° |
| 2026-05-05 22:14 | 42.06169 | -80.40172 | 2991 ft | 154 kts | 47° |
| 2026-05-05 22:14 | 42.06843 | -80.39071 | 2987 ft | 152 kts | 47° |
| 2026-05-05 22:14 | 42.07521 | -80.37957 | 2995 ft | 155 kts | 47° |
| 2026-05-05 22:15 | 42.08200 | -80.36821 | 2996 ft | 158 kts | 47° |
| 2026-05-05 22:15 | 42.08903 | -80.35653 | 2998 ft | 160 kts | 48° |
| 2026-05-05 22:15 | 42.09580 | -80.34475 | 2999 ft | 160 kts | 49° |
| 2026-05-05 22:15 | 42.10258 | -80.33301 | 3002 ft | 160 kts | 49° |
| 2026-05-05 22:16 | 42.10946 | -80.32101 | 3005 ft | 161 kts | 49° |
| 2026-05-05 22:16 | 42.11628 | -80.30912 | 3001 ft | 161 kts | 50° |
| 2026-05-05 22:16 | 42.12324 | -80.29729 | 3006 ft | 160 kts | 49° |
| 2026-05-05 22:16 | 42.13010 | -80.28556 | 3006 ft | 161 kts | 49° |
| 2026-05-05 22:17 | 42.13699 | -80.27350 | 3006 ft | 161 kts | 49° |
| 2026-05-05 22:17 | 42.14390 | -80.26157 | 3004 ft | 161 kts | 49° |
| 2026-05-05 22:17 | 42.15068 | -80.24986 | 3007 ft | 160 kts | 49° |
| 2026-05-05 22:17 | 42.15753 | -80.23790 | 3008 ft | 161 kts | 49° |
| 2026-05-05 22:18 | 42.16441 | -80.22579 | 3002 ft | 161 kts | 49° |
| 2026-05-05 22:18 | 42.17121 | -80.21389 | 3005 ft | 160 kts | 49° |
| 2026-05-05 22:18 | 42.17803 | -80.20213 | 3006 ft | 158 kts | 49° |
| 2026-05-05 22:18 | 42.18473 | -80.19059 | 3004 ft | 156 kts | 48° |
| 2026-05-05 22:19 | 42.19141 | -80.17901 | 3001 ft | 155 kts | 49° |
| 2026-05-05 22:19 | 42.19807 | -80.16771 | 3003 ft | 155 kts | 49° |
| 2026-05-05 22:19 | 42.20472 | -80.15614 | 3003 ft | 155 kts | 49° |
| 2026-05-05 22:19 | 42.21123 | -80.14469 | 3002 ft | 155 kts | 49° |
| 2026-05-05 22:20 | 42.21797 | -80.13307 | 3004 ft | 157 kts | 49° |
| 2026-05-05 22:20 | 42.22466 | -80.12148 | 3006 ft | 159 kts | 49° |
| 2026-05-05 22:20 | 42.23151 | -80.10976 | 3007 ft | 159 kts | 49° |
| 2026-05-05 22:20 | 42.23796 | -80.09780 | 2987 ft | 161 kts | 62° |
| 2026-05-05 22:21 | 42.23838 | -80.08296 | 2990 ft | 157 kts | 105° |
| 2026-05-05 22:21 | 42.23642 | -80.06862 | 2994 ft | 157 kts | 103° |
| 2026-05-05 22:21 | 42.23447 | -80.05426 | 2997 ft | 155 kts | 104° |
| 2026-05-05 22:21 | 42.23046 | -80.04122 | 2982 ft | 147 kts | 134° |
| 2026-05-05 22:22 | 42.22413 | -80.03054 | 2990 ft | 147 kts | 134° |
| 2026-05-05 22:22 | 42.21782 | -80.01955 | 2990 ft | 147 kts | 134° |
| 2026-05-05 22:22 | 42.21163 | -80.00874 | 2994 ft | 147 kts | 135° |
| 2026-05-05 22:22 | 42.20535 | -79.99778 | 2991 ft | 147 kts | 136° |
| 2026-05-05 22:23 | 42.19813 | -79.98899 | 2968 ft | 134 kts | 169° |
| 2026-05-05 22:23 | 42.18999 | -79.99108 | 2989 ft | 119 kts | 215° |
| 2026-05-05 22:23 | 42.18267 | -79.99657 | 2995 ft | 121 kts | 213° |
| 2026-05-05 22:23 | 42.17612 | -80.00332 | 2987 ft | 119 kts | 229° |
| 2026-05-05 22:24 | 42.17043 | -80.01153 | 2979 ft | 118 kts | 231° |
| 2026-05-05 22:24 | 42.16499 | -80.01925 | 2940 ft | 110 kts | 229° |
| 2026-05-05 22:24 | 42.15969 | -80.02636 | 2933 ft | 108 kts | 228° |
| 2026-05-05 22:24 | 42.15484 | -80.03410 | 2908 ft | 106 kts | 237° |
| 2026-05-05 22:25 | 42.15074 | -80.04200 | 2844 ft | 100 kts | 238° |
| 2026-05-05 22:25 | 42.14679 | -80.04961 | 2749 ft | 100 kts | 238° |
| 2026-05-05 22:25 | 42.14335 | -80.05727 | 2578 ft | 88 kts | 242° |
| 2026-05-05 22:25 | 42.14064 | -80.06378 | 2452 ft | 72 kts | 239° |
| 2026-05-05 22:26 | 42.13772 | -80.06866 | 2350 ft | 64 kts | 235° |
| 2026-05-05 22:26 | 42.13494 | -80.07316 | 2272 ft | 62 kts | 239° |
| 2026-05-05 22:26 | 42.13246 | -80.07803 | 2212 ft | 64 kts | 234° |
| 2026-05-05 22:26 | 42.13013 | -80.08319 | 2156 ft | 64 kts | 244° |
| 2026-05-05 22:27 | 42.12765 | -80.08817 | 2109 ft | 65 kts | 239° |
| 2026-05-05 22:27 | 42.12457 | -80.09278 | 2025 ft | 68 kts | 229° |
| 2026-05-05 22:27 | 42.12123 | -80.09722 | 1836 ft | 65 kts | 234° |
| 2026-05-05 22:27 | 42.11891 | -80.10210 | 1733 ft | 62 kts | 242° |
| 2026-05-05 22:28 | 42.11675 | -80.10760 | 1629 ft | 69 kts | 243° |
| 2026-05-05 22:28 | 42.11422 | -80.11301 | 1514 ft | 66 kts | 238° |
| 2026-05-05 22:28 | 42.11138 | -80.11806 | 1434 ft | 68 kts | 235° |
| 2026-05-05 22:28 | 42.10863 | -80.12305 | 1360 ft | 65 kts | 237° |
| 2026-05-05 22:29 | 42.10599 | -80.12825 | 1275 ft | 69 kts | 239° |
| 2026-05-05 22:29 | 42.10343 | -80.13347 | 1184 ft | 63 kts | 238° |
| 2026-05-05 22:29 | 42.10115 | -80.13833 | 1120 ft | 63 kts | 238° |
| 2026-05-05 22:29 | 42.09850 | -80.14323 | 1036 ft | 64 kts | 232° |
| 2026-05-05 22:30 | 42.09584 | -80.14831 | 981 ft | 68 kts | 236° |
| 2026-05-05 22:30 | 42.09305 | -80.15345 | 872 ft | 70 kts | 234° |
| 2026-05-05 22:30 | 42.09038 | -80.15860 | 761 ft | 64 kts | 234° |
| 2026-05-05 22:30 | 42.08814 | -80.16295 | 729 ft | 41 kts | 235° |
| 2026-05-05 22:31 | 42.08724 | -80.16464 | 730 ft | 15 kts | 233° |
| 2026-05-05 22:31 | 42.08729 | -80.16537 | 730 ft | 6 kts | 321° |
| 2026-05-05 22:31 | 42.08754 | -80.16561 | 730 ft | 2 kts | 324° |
| 2026-05-05 22:31 | 42.08760 | -80.16568 | 730 ft | 0 kts | 320° |